Stations météo

Publicité
Mont Aigoual, France (7560): Température de l'air & dewpoint: 18.01.2021 06:00:00 - 24.01.2021 06:00:00 (CET)Mont Aigoual, France (7560): Vitesse du vent & gusts: 18.01.2021 06:00:00 - 24.01.2021 06:00:00 (CET)Mont Aigoual, France (7560): Direction du vent: 18.01.2021 06:00:00 - 24.01.2021 06:00:00 (CET)Mont Aigoual, France (7560): visibility: 18.01.2021 06:00:00 - 24.01.2021 06:00:00 (CET)Mont Aigoual, France (7560): Quantités de précipitations: 18.01.2021 06:00:00 - 24.01.2021 06:00:00 (CET)
Date & Time tt [°C] td [°C] ff [km/h] ff [knt] fx [km/h] fx [knt] dd vv [km] rr [mm]
24.01.2021 06:00:00 -4,3 -4,6 31 17 52 28 N 1,0 0,2
24.01.2021 05:00:00 -4,0 -4,3 26 14 46 25 N 0,1 0,2
24.01.2021 04:00:00 -3,9 -4,2 29 16 40 21 N 0,2 0,6
24.01.2021 03:00:00 -3,8 -3,9 23 13 32 17 N 0,2 0,8
24.01.2021 02:00:00 -3,8 -3,9 19 10 30 16 N 0,8 0,6
24.01.2021 01:00:00 -3,7 -3,8 26 14 51 28 N 2,7 0,2
24.01.2021 00:00:00 -3,6 -3,7 42 23 58 31 NNW 1,4 0,0
23.01.2021 23:00:00 -3,4 -3,5 44 24 61 33 NNW 14 0,0
23.01.2021 22:00:00 -3,2 -3,3 42 23 85 46 NNW 0,1 0,0
23.01.2021 21:00:00 -3,2 -3,3 55 30 83 45 NW 0,1 0,2
23.01.2021 20:00:00 -3,4 -3,5 61 33 104 56 NW 0,1 0,0
23.01.2021 19:00:00 -3,4 -3,5 76 41 114 62 NW 0,2 0,0
23.01.2021 18:00:00 -3,1 -3,2 69 37 119 65 WNW 0,3 0,0
23.01.2021 17:00:00 -3,0 -3,1 67 36 106 57 W 0,2 0,4
23.01.2021 16:00:00 -2,7 -2,7 55 30 103 55 W 0,2 0,8
23.01.2021 15:00:00 -2,5 -2,5 54 29 103 55 W 0,2 1,7
23.01.2021 14:00:00 -2,7 -2,7 50 27 91 49 W 0,3 1,4
23.01.2021 13:00:00 -2,5 -2,5 55 30 106 57 W 0,3 1,6
23.01.2021 12:00:00 -2,5 -2,5 58 31 109 59 W 0,2 1,0
23.01.2021 11:00:00 -2,6 -2,6 56 30 99 53 W 0,2 1,4
23.01.2021 10:00:00 -2,6 -2,6 50 27 91 49 W 0,3 0,6
23.01.2021 09:00:00 -2,6 -2,6 58 31 112 61 W 0,2 0,0
23.01.2021 08:00:00 -3,3 -3,4 65 35 106 57 WNW 0,2 0,0
23.01.2021 07:00:00 -3,7 -3,8 80 43 106 57 NW 0,2 0,0
23.01.2021 06:00:00 -3,8 -3,9 77 41 103 56 NW 0,2 0,0
23.01.2021 05:00:00 -3,4 -3,5 65 35 114 61 WNW 0,2 0,0
23.01.2021 04:00:00 -3,5 -3,6 61 33 98 53 NW 0,1 0,0
23.01.2021 03:00:00 -3,7 -3,8 46 25 98 53 NNW 0,1 0,0
23.01.2021 02:00:00 -3,7 -3,8 53 29 104 56 NNW 0,1 0,0
23.01.2021 01:00:00 -3,7 -3,8 58 32 100 54 NNW 0,1 0,0
23.01.2021 00:00:00 -4,0 -4,1 67 36 114 62 NNW 0,1 0,0
22.01.2021 23:00:00 -4,1 -4,4 73 40 133 72 NNW 0,1 0,0
22.01.2021 22:00:00 -4,3 -4,6 91 49 157 85 NNW 0,1 0,0
22.01.2021 21:00:00 -4,5 -4,8 111 60 184 99 NNW 0,1 0,0
22.01.2021 20:00:00 -4,7 -5,0 110 59 - - NNW 0,1 0,0
22.01.2021 19:00:00 -4,0 -4,1 103 56 - - NNW 0,1 0,0
22.01.2021 18:00:00 -2,7 -2,7 - - 167 90 - 0,1 0,0
22.01.2021 17:00:00 -1,2 -1,2 100 54 140 76 NW 0,1 0,4
22.01.2021 16:00:00 -0,6 -0,6 96 52 133 72 NW 0,1 0,0
22.01.2021 15:00:00 -0,8 -0,8 82 44 110 59 NW 0,1 0,0
22.01.2021 14:00:00 -1,2 -1,2 69 37 91 49 NW 0,1 0,0
22.01.2021 13:00:00 -1,4 -1,4 56 31 81 44 NNW 0,1 0,0
22.01.2021 12:00:00 -0,2 -0,2 48 26 81 44 SSW 0,1 1,8
22.01.2021 11:00:00 1,4 1,4 39 21 54 29 S 0,1 0,0
22.01.2021 10:00:00 1,6 1,6 28 15 55 30 SSE - 0,0
22.01.2021 09:00:00 1,5 1,5 33 18 53 29 ESE - 0,0
22.01.2021 08:00:00 2,0 1,0 22 12 33 18 SE 0,2 0,0
22.01.2021 07:00:00 2,3 -0,3 27 15 44 24 SSW 20 0,0
22.01.2021 06:00:00 2,0 -0,1 29 16 57 31 S 20 0,0
22.01.2021 05:00:00 2,6 -0,2 36 20 54 29 S 20 0,0
22.01.2021 04:00:00 2,5 0,1 26 14 52 28 S 20 0,0
22.01.2021 03:00:00 2,7 0,8 40 21 59 32 SSW 20 0,0
22.01.2021 02:00:00 2,3 1,0 44 24 56 31 SSW 20 0,0
22.01.2021 01:00:00 1,5 0,8 33 18 48 26 SSW 20 0,0
22.01.2021 00:00:00 1,8 1,2 37 20 53 28 SSW 20 0,0
21.01.2021 23:00:00 2,0 1,4 37 20 51 28 SSW 20 0,0
21.01.2021 22:00:00 2,1 1,7 35 19 52 28 SW 20 0,0
21.01.2021 21:00:00 1,6 1,6 31 17 49 26 SW 20 0,0
21.01.2021 20:00:00 1,3 1,3 33 18 40 22 SW 19 0,0
21.01.2021 19:00:00 1,8 1,8 23 12 53 29 S - 0,0
21.01.2021 18:00:00 1,7 1,7 35 19 55 30 S - 0,0
21.01.2021 17:00:00 1,9 1,9 41 22 58 32 S - 0,0
21.01.2021 16:00:00 2,1 2,1 39 21 60 33 S - 0,0
21.01.2021 15:00:00 2,1 2,1 36 19 54 29 S - 0,0
21.01.2021 14:00:00 1,9 1,9 31 17 47 25 S - 0,0
21.01.2021 13:00:00 2,1 2,1 30 16 44 24 S - 0,0
21.01.2021 12:00:00 2,1 2,1 28 15 38 21 S - 0,0
21.01.2021 11:00:00 2,1 2,1 26 14 34 18 S - 0,0
21.01.2021 10:00:00 1,9 1,9 22 12 34 19 S - 0,0
21.01.2021 09:00:00 1,8 1,8 25 13 36 19 S - 0,0
21.01.2021 08:00:00 1,8 1,8 23 12 29 16 S - 0,0
21.01.2021 07:00:00 1,7 1,7 15 8 22 12 S - 0,0
21.01.2021 06:00:00 1,4 1,4 14 7 20 11 S - 0,0
21.01.2021 05:00:00 1,3 1,3 14 8 23 12 S - 0,0
21.01.2021 04:00:00 1,1 1,1 17 9 39 21 S - 0,0
21.01.2021 03:00:00 1,0 1,0 27 14 46 25 S - 0,0
21.01.2021 02:00:00 1,1 1,1 32 18 57 31 S - 0,0
21.01.2021 01:00:00 1,3 1,3 37 20 74 40 S - 0,2
21.01.2021 00:00:00 1,4 1,4 47 26 98 53 S - 0,0
20.01.2021 23:00:00 1,3 1,3 53 29 92 50 S 0,1 0,6
20.01.2021 22:00:00 0,8 0,8 58 31 108 58 S - 0,0
20.01.2021 21:00:00 0,3 0,3 70 38 119 64 S - 0,8
20.01.2021 20:00:00 0,5 0,5 79 42 142 77 S - 0,6
20.01.2021 19:00:00 0,8 0,8 85 46 129 70 S - 1,8
20.01.2021 18:00:00 1,0 1,0 84 45 144 78 S - 0,8
20.01.2021 17:00:00 0,4 0,4 98 53 148 80 S 0,1 0,0
20.01.2021 16:00:00 0,9 0,9 82 44 130 70 S - 0,0
20.01.2021 15:00:00 0,8 0,8 77 42 126 68 S - 0,0
20.01.2021 14:00:00 1,1 1,1 72 39 128 69 S - 0,2
20.01.2021 13:00:00 1,1 1,1 74 40 116 63 S - 0,0
20.01.2021 12:00:00 1,2 1,2 61 33 116 63 S - 0,6
20.01.2021 11:00:00 1,0 1,0 67 36 98 53 SSE - 0,6
20.01.2021 10:00:00 0,8 0,8 66 36 104 56 S - 0,0
20.01.2021 09:00:00 0,6 0,6 67 36 112 61 S 0,1 0,0
20.01.2021 08:00:00 0,2 0,2 55 30 105 57 S - 0,0
20.01.2021 07:00:00 -0,5 -0,5 66 36 104 56 S - 0,0
20.01.2021 06:00:00 -0,7 -0,7 50 27 72 39 SSE - 0,0
20.01.2021 05:00:00 -0,4 -0,4 33 18 62 34 S - 0,0
20.01.2021 04:00:00 -0,1 -0,1 41 22 61 33 SSE 0,1 0,0
20.01.2021 03:00:00 -0,1 -0,1 35 19 69 37 SSE - 0,0
20.01.2021 02:00:00 -0,1 -0,1 39 21 57 31 S - 0,0
20.01.2021 01:00:00 -0,5 -0,5 36 19 53 29 S 0,1 0,0
20.01.2021 00:00:00 -1,9 -1,9 30 16 48 26 S 0,1 0,0
19.01.2021 23:00:00 0,3 -7,9 31 17 41 22 S 20 0,0
19.01.2021 22:00:00 1,5 -12,0 31 17 47 26 S 20 0,0
19.01.2021 21:00:00 1,6 -16,4 34 19 51 27 S 20 0,0
19.01.2021 20:00:00 1,5 -15,1 35 19 47 26 S 20 0,0
19.01.2021 19:00:00 1,6 -12,2 33 18 49 27 S 20 0,0
19.01.2021 18:00:00 1,6 -15,9 30 16 38 21 SSW 20 0,0
19.01.2021 17:00:00 3,2 -9,1 23 13 31 17 SSW 20 0,0
19.01.2021 16:00:00 4,0 -10,1 23 13 35 19 SSW 20 0,0
19.01.2021 15:00:00 4,2 -9,9 23 12 39 21 SSW 20 0,0
19.01.2021 14:00:00 4,3 -9,1 22 12 42 23 SW 20 0,0
19.01.2021 13:00:00 4,2 -13,6 23 12 39 21 SW 20 0,0
19.01.2021 12:00:00 3,6 -13,7 18 10 30 16 SW 20 0,0
19.01.2021 11:00:00 2,1 -19,2 20 11 27 15 W 20 0,0
19.01.2021 10:00:00 1,1 -18,3 23 12 30 16 W 20 0,0
19.01.2021 09:00:00 0,3 -18,0 24 13 31 17 W 20 0,0
19.01.2021 08:00:00 -0,8 -17,5 27 14 35 19 WNW 20 0,0
19.01.2021 07:00:00 -1,2 -16,6 31 17 36 19 WNW 20 0,0
19.01.2021 06:00:00 -1,6 -15,8 27 15 35 19 WNW 20 0,0
19.01.2021 05:00:00 -2,1 -15,5 31 17 35 19 WNW 20 0,0
19.01.2021 04:00:00 -2,2 -15,0 27 15 33 18 WNW 20 0,0
19.01.2021 03:00:00 -2,2 -15,0 26 14 30 16 W 20 0,0
19.01.2021 02:00:00 -2,0 -12,9 19 10 28 15 W 20 0,0
19.01.2021 01:00:00 -1,2 -11,1 23 12 30 16 W 20 0,0
19.01.2021 00:00:00 -2,3 -9,7 16 9 23 13 W 20 0,0
18.01.2021 23:00:00 -3,6 -8,5 12 6 20 11 WNW 20 0,0
18.01.2021 22:00:00 -3,8 -8,1 17 9 24 13 NW 20 0,0
18.01.2021 21:00:00 -4,0 -7,3 22 12 32 17 N 20 0,0
18.01.2021 20:00:00 -4,0 -8,3 29 16 40 21 N 20 0,0
18.01.2021 19:00:00 -4,2 -8,3 31 17 44 24 N 20 0,0
18.01.2021 18:00:00 -4,4 -8,0 36 19 42 23 N 20 0,0
18.01.2021 17:00:00 -3,6 -6,4 27 15 38 21 N 20 0,0
18.01.2021 16:00:00 -3,2 -5,4 26 14 34 18 N 20 0,0
18.01.2021 15:00:00 -3,3 -5,0 22 12 48 26 N 20 0,0
18.01.2021 14:00:00 -3,6 -5,3 30 16 59 32 N 20 0,0
18.01.2021 13:00:00 -4,1 -5,5 43 23 61 33 N 20 0,0
18.01.2021 12:00:00 -4,4 -5,6 40 22 63 34 N 20 0,0
18.01.2021 11:00:00 -5,1 -6,2 42 23 69 37 N 20 0,0
18.01.2021 10:00:00 -5,6 -6,6 41 22 76 41 N 20 0,0
18.01.2021 09:00:00 -6,1 -6,8 55 30 77 42 N 2,3 0,0
18.01.2021 08:00:00 -6,3 -7,1 44 24 72 39 N 2,2 0,0
18.01.2021 07:00:00 -6,1 -6,6 51 28 77 41 N 2,1 0,0
18.01.2021 06:00:00 -6,3 -6,8 48 26 70 38 N 2,1 0,0

tt = Température de l'air
td = dewpoint
ff = Vitesse du vent
fx = gusts
dd = Direction du vent
vv = visibility
rr = Quantités de précipitations

stations d'obs. à proximité